Terminal Aerodrome Forecast
Issued by NWS

Home | Current Version | Previous Version | Text Only | Print | Product List | Glossary Off
Versions: 1 2 3 4 5 6 7 8 9 10 11 12 13 14 15 16 17 18 19 20 21 22

000
FTUS43 KTOP 012332
TAFFOE
TAF
KFOE 012332Z 0200/0224 33009KT P6SM SCT015 OVC025
      TEMPO 0202/0206 SCT020 OVC035
     FM021400 34009KT P6SM VCSH SCT020 BKN040=

USA.gov is the U.S. government's official web portal to all federal, state and local government web resources and services.